Kimper, Kentucky
Current Conditions -  °F | °C
As of 2:15 PM on Friday 28 Nov 2014 (Local Time) from KPBX Reporting Station
Scattered Clouds Scattered Clouds  
Wind Chill: 34°   Ceiling: Unl
Heat Index: 34°   Visibility: 10mi
Dew Point: 17°   Wind: 3mph
Humidity: 52%   Direction: 150°SSE
Pressure: 30.27"   Gusts: NA
Location:  37.5°N, 82.35°W
Report Text: KPBX 281915Z AUTO 15003KT 10SM SCT070 01/M08 A3027 RMK AO2 T00091081
Loading
Personal Weather Stations






























Interactive Weather Map New forecast layout! Learn more

10-Day Weather Forecast

Advertisements
Track Severe Weather on mobile